sensor_id;sensor_type;location;lat;lon;timestamp;temperature;humidity
53748;DHT22;39655;53.210;5.768;2024-03-02T00:24:12;8.30;77.60
53748;DHT22;39655;53.210;5.768;2024-03-02T00:26:47;8.30;77.80
53748;DHT22;39655;53.210;5.768;2024-03-02T00:29:17;8.30;77.90
53748;DHT22;39655;53.210;5.768;2024-03-02T00:32:17;8.30;77.90
53748;DHT22;39655;53.210;5.768;2024-03-02T00:35:14;8.30;78.10
53748;DHT22;39655;53.210;5.768;2024-03-02T00:54:05;8.10;81.10
53748;DHT22;39655;53.210;5.768;2024-03-02T00:57:36;8.10;81.50
53748;DHT22;39655;53.210;5.768;2024-03-02T01:00:33;8.00;81.20
53748;DHT22;39655;53.210;5.768;2024-03-02T01:03:05;8.00;81.70
53748;DHT22;39655;53.210;5.768;2024-03-02T01:05:36;8.00;82.00
53748;DHT22;39655;53.210;5.768;2024-03-02T01:08:37;8.00;81.70
53748;DHT22;39655;53.210;5.768;2024-03-02T01:11:22;7.90;82.00
53748;DHT22;39655;53.210;5.768;2024-03-02T01:14:06;8.00;82.10
53748;DHT22;39655;53.210;5.768;2024-03-02T01:17:02;8.00;82.10
53748;DHT22;39655;53.210;5.768;2024-03-02T01:20:04;8.00;82.00
53748;DHT22;39655;53.210;5.768;2024-03-02T01:22:42;8.00;81.80
53748;DHT22;39655;53.210;5.768;2024-03-02T01:25:23;8.10;81.90
53748;DHT22;39655;53.210;5.768;2024-03-02T01:27:52;8.10;81.60
53748;DHT22;39655;53.210;5.768;2024-03-02T01:30:21;8.10;81.60
53748;DHT22;39655;53.210;5.768;2024-03-02T01:32:54;8.20;81.50
53748;DHT22;39655;53.210;5.768;2024-03-02T01:36:37;8.20;81.40
53748;DHT22;39655;53.210;5.768;2024-03-02T01:39:15;8.30;81.10
53748;DHT22;39655;53.210;5.768;2024-03-02T01:41:41;8.40;80.90
53748;DHT22;39655;53.210;5.768;2024-03-02T01:44:15;8.30;80.80
53748;DHT22;39655;53.210;5.768;2024-03-02T01:51:58;8.50;80.30
53748;DHT22;39655;53.210;5.768;2024-03-02T01:54:36;8.60;79.90
53748;DHT22;39655;53.210;5.768;2024-03-02T01:57:03;8.60;79.70
53748;DHT22;39655;53.210;5.768;2024-03-02T01:59:43;8.60;79.70
53748;DHT22;39655;53.210;5.768;2024-03-02T02:02:27;8.60;79.50
53748;DHT22;39655;53.210;5.768;2024-03-02T02:05:08;8.60;79.50
53748;DHT22;39655;53.210;5.768;2024-03-02T02:10:25;8.70;79.30
53748;DHT22;39655;53.210;5.768;2024-03-02T02:13:28;8.70;79.40
53748;DHT22;39655;53.210;5.768;2024-03-02T02:16:13;8.60;79.20
53748;DHT22;39655;53.210;5.768;2024-03-02T02:18:41;8.60;79.60
53748;DHT22;39655;53.210;5.768;2024-03-02T02:21:11;8.70;79.10
53748;DHT22;39655;53.210;5.768;2024-03-02T02:23:48;8.70;79.10
53748;DHT22;39655;53.210;5.768;2024-03-02T02:26:15;8.70;79.10
53748;DHT22;39655;53.210;5.768;2024-03-02T02:28:45;8.70;79.00
53748;DHT22;39655;53.210;5.768;2024-03-02T02:31:15;8.70;78.80
53748;DHT22;39655;53.210;5.768;2024-03-02T02:33:47;8.80;79.10
53748;DHT22;39655;53.210;5.768;2024-03-02T02:36:15;8.70;79.00
53748;DHT22;39655;53.210;5.768;2024-03-02T02:38:49;8.70;78.90
53748;DHT22;39655;53.210;5.768;2024-03-02T02:41:25;8.80;79.00
53748;DHT22;39655;53.210;5.768;2024-03-02T02:44:02;8.80;79.10
53748;DHT22;39655;53.210;5.768;2024-03-02T02:47:03;8.80;78.90
53748;DHT22;39655;53.210;5.768;2024-03-02T02:49:54;8.70;79.20
53748;DHT22;39655;53.210;5.768;2024-03-02T02:53:02;8.70;79.30
53748;DHT22;39655;53.210;5.768;2024-03-02T03:07:46;8.60;79.80
53748;DHT22;39655;53.210;5.768;2024-03-02T03:11:04;8.60;79.80
53748;DHT22;39655;53.210;5.768;2024-03-02T03:14:37;8.60;80.00
53748;DHT22;39655;53.210;5.768;2024-03-02T03:17:53;8.50;80.20
53748;DHT22;39655;53.210;5.768;2024-03-02T03:21:02;8.50;80.10
53748;DHT22;39655;53.210;5.768;2024-03-02T03:32:26;8.40;80.80
53748;DHT22;39655;53.210;5.768;2024-03-02T03:36:35;8.30;80.90
53748;DHT22;39655;53.210;5.768;2024-03-02T03:45:35;8.20;81.70
53748;DHT22;39655;53.210;5.768;2024-03-02T03:48:33;8.20;82.10
53748;DHT22;39655;53.210;5.768;2024-03-02T03:51:04;8.20;81.90
53748;DHT22;39655;53.210;5.768;2024-03-02T03:53:33;8.10;82.30
53748;DHT22;39655;53.210;5.768;2024-03-02T03:58:48;8.10;82.20
53748;DHT22;39655;53.210;5.768;2024-03-02T04:01:21;8.10;82.30
53748;DHT22;39655;53.210;5.768;2024-03-02T04:03:55;8.10;82.40
53748;DHT22;39655;53.210;5.768;2024-03-02T04:06:21;8.00;83.00
53748;DHT22;39655;53.210;5.768;2024-03-02T04:08:49;8.00;83.20
53748;DHT22;39655;53.210;5.768;2024-03-02T04:11:35;8.00;83.30
53748;DHT22;39655;53.210;5.768;2024-03-02T04:22:48;7.90;84.00
53748;DHT22;39655;53.210;5.768;2024-03-02T04:25:50;7.80;84.20
53748;DHT22;39655;53.210;5.768;2024-03-02T04:28:40;7.70;84.70
53748;DHT22;39655;53.210;5.768;2024-03-02T04:34:06;7.70;85.00
53748;DHT22;39655;53.210;5.768;2024-03-02T04:37:02;7.60;85.00
53748;DHT22;39655;53.210;5.768;2024-03-02T04:39:54;7.60;85.10
53748;DHT22;39655;53.210;5.768;2024-03-02T04:42:40;7.50;85.30
53748;DHT22;39655;53.210;5.768;2024-03-02T04:45:18;7.50;85.50
53748;DHT22;39655;53.210;5.768;2024-03-02T04:47:57;7.40;85.90
53748;DHT22;39655;53.210;5.768;2024-03-02T04:50:37;7.40;85.90
53748;DHT22;39655;53.210;5.768;2024-03-02T04:53:27;7.40;86.20
53748;DHT22;39655;53.210;5.768;2024-03-02T04:56:11;7.40;86.30
53748;DHT22;39655;53.210;5.768;2024-03-02T04:58:59;7.30;86.50
53748;DHT22;39655;53.210;5.768;2024-03-02T05:01:53;7.40;86.60
53748;DHT22;39655;53.210;5.768;2024-03-02T05:04:30;7.30;86.60
53748;DHT22;39655;53.210;5.768;2024-03-02T05:07:51;7.30;86.90
53748;DHT22;39655;53.210;5.768;2024-03-02T05:11:07;7.20;87.10
53748;DHT22;39655;53.210;5.768;2024-03-02T05:14:23;7.10;87.00
53748;DHT22;39655;53.210;5.768;2024-03-02T05:17:11;6.90;87.30
53748;DHT22;39655;53.210;5.768;2024-03-02T05:19:41;6.80;87.30
53748;DHT22;39655;53.210;5.768;2024-03-02T05:22:33;6.70;87.40
53748;DHT22;39655;53.210;5.768;2024-03-02T05:25:28;6.60;87.30
53748;DHT22;39655;53.210;5.768;2024-03-02T05:31:21;6.40;87.80
53748;DHT22;39655;53.210;5.768;2024-03-02T05:34:16;6.40;88.00
53748;DHT22;39655;53.210;5.768;2024-03-02T05:37:17;6.30;88.20
53748;DHT22;39655;53.210;5.768;2024-03-02T05:41:12;6.20;87.90
53748;DHT22;39655;53.210;5.768;2024-03-02T06:10:30;5.40;89.50
53748;DHT22;39655;53.210;5.768;2024-03-02T06:12:56;5.40;89.60
53748;DHT22;39655;53.210;5.768;2024-03-02T06:15:29;5.40;90.00
53748;DHT22;39655;53.210;5.768;2024-03-02T06:18:01;5.30;89.70
53748;DHT22;39655;53.210;5.768;2024-03-02T06:20:54;5.30;89.80
53748;DHT22;39655;53.210;5.768;2024-03-02T06:23:28;5.30;90.00
53748;DHT22;39655;53.210;5.768;2024-03-02T06:26:57;5.40;90.10
53748;DHT22;39655;53.210;5.768;2024-03-02T06:30:08;5.50;90.10
53748;DHT22;39655;53.210;5.768;2024-03-02T06:34:04;5.50;89.90
53748;DHT22;39655;53.210;5.768;2024-03-02T06:39:33;5.30;90.00
53748;DHT22;39655;53.210;5.768;2024-03-02T06:42:00;5.20;90.00
53748;DHT22;39655;53.210;5.768;2024-03-02T06:44:26;5.20;89.80
53748;DHT22;39655;53.210;5.768;2024-03-02T06:46:53;5.10;90.00
53748;DHT22;39655;53.210;5.768;2024-03-02T06:49:19;5.10;90.20
53748;DHT22;39655;53.210;5.768;2024-03-02T06:51:45;5.10;90.50
53748;DHT22;39655;53.210;5.768;2024-03-02T06:54:10;5.10;90.40
53748;DHT22;39655;53.210;5.768;2024-03-02T06:56:36;5.10;90.30
53748;DHT22;39655;53.210;5.768;2024-03-02T06:59:03;5.10;90.40
53748;DHT22;39655;53.210;5.768;2024-03-02T07:01:28;5.10;90.50
53748;DHT22;39655;53.210;5.768;2024-03-02T07:03:54;5.10;90.40
53748;DHT22;39655;53.210;5.768;2024-03-02T07:06:19;5.10;90.50
53748;DHT22;39655;53.210;5.768;2024-03-02T07:08:45;5.20;90.60
53748;DHT22;39655;53.210;5.768;2024-03-02T07:11:11;5.20;91.00
53748;DHT22;39655;53.210;5.768;2024-03-02T07:13:36;5.30;91.00
53748;DHT22;39655;53.210;5.768;2024-03-02T07:16:02;5.30;90.90
53748;DHT22;39655;53.210;5.768;2024-03-02T07:18:32;5.30;90.90
53748;DHT22;39655;53.210;5.768;2024-03-02T07:20:59;5.30;90.90
53748;DHT22;39655;53.210;5.768;2024-03-02T07:23:26;5.30;90.60
53748;DHT22;39655;53.210;5.768;2024-03-02T07:25:56;5.30;90.50
53748;DHT22;39655;53.210;5.768;2024-03-02T07:28:27;5.40;90.80
53748;DHT22;39655;53.210;5.768;2024-03-02T07:31:00;5.40;91.20
53748;DHT22;39655;53.210;5.768;2024-03-02T07:33:26;5.50;91.30
53748;DHT22;39655;53.210;5.768;2024-03-02T07:35:53;5.50;91.40
53748;DHT22;39655;53.210;5.768;2024-03-02T07:38:19;5.50;91.40
53748;DHT22;39655;53.210;5.768;2024-03-02T07:40:45;5.60;91.50
53748;DHT22;39655;53.210;5.768;2024-03-02T07:43:11;5.60;91.50
53748;DHT22;39655;53.210;5.768;2024-03-02T07:45:36;5.70;91.10
53748;DHT22;39655;53.210;5.768;2024-03-02T07:48:03;5.70;91.00
53748;DHT22;39655;53.210;5.768;2024-03-02T07:50:31;5.80;90.80
53748;DHT22;39655;53.210;5.768;2024-03-02T07:52:59;5.80;90.70
53748;DHT22;39655;53.210;5.768;2024-03-02T07:55:25;5.90;90.50
53748;DHT22;39655;53.210;5.768;2024-03-02T07:57:51;6.00;90.50
53748;DHT22;39655;53.210;5.768;2024-03-02T08:00:16;6.10;90.50
53748;DHT22;39655;53.210;5.768;2024-03-02T08:02:42;6.10;90.30
53748;DHT22;39655;53.210;5.768;2024-03-02T08:05:08;6.20;90.00
53748;DHT22;39655;53.210;5.768;2024-03-02T08:07:34;6.20;90.00
53748;DHT22;39655;53.210;5.768;2024-03-02T08:10:00;6.30;90.00
53748;DHT22;39655;53.210;5.768;2024-03-02T08:12:26;6.30;89.80
53748;DHT22;39655;53.210;5.768;2024-03-02T08:14:54;6.40;89.50
53748;DHT22;39655;53.210;5.768;2024-03-02T08:17:25;6.50;89.30
53748;DHT22;39655;53.210;5.768;2024-03-02T08:19:50;6.60;89.10
53748;DHT22;39655;53.210;5.768;2024-03-02T08:22:22;6.60;88.90
53748;DHT22;39655;53.210;5.768;2024-03-02T08:25:05;6.70;88.80
53748;DHT22;39655;53.210;5.768;2024-03-02T08:27:31;6.80;88.60
53748;DHT22;39655;53.210;5.768;2024-03-02T08:30:07;6.80;88.20
53748;DHT22;39655;53.210;5.768;2024-03-02T08:32:46;6.90;88.10
53748;DHT22;39655;53.210;5.768;2024-03-02T08:35:15;6.90;88.10
53748;DHT22;39655;53.210;5.768;2024-03-02T08:37:51;7.00;87.90
53748;DHT22;39655;53.210;5.768;2024-03-02T08:40:45;7.10;87.60
53748;DHT22;39655;53.210;5.768;2024-03-02T08:43:19;7.10;87.50
53748;DHT22;39655;53.210;5.768;2024-03-02T08:45:48;7.20;87.40
53748;DHT22;39655;53.210;5.768;2024-03-02T08:48:36;7.20;87.40
53748;DHT22;39655;53.210;5.768;2024-03-02T08:51:07;7.30;86.90
53748;DHT22;39655;53.210;5.768;2024-03-02T08:53:38;7.50;86.60
53748;DHT22;39655;53.210;5.768;2024-03-02T08:56:04;7.60;86.10
53748;DHT22;39655;53.210;5.768;2024-03-02T08:58:38;7.70;85.30
53748;DHT22;39655;53.210;5.768;2024-03-02T09:01:03;7.80;84.90
53748;DHT22;39655;53.210;5.768;2024-03-02T09:03:29;7.90;84.40
53748;DHT22;39655;53.210;5.768;2024-03-02T09:05:55;7.90;84.70
53748;DHT22;39655;53.210;5.768;2024-03-02T09:08:21;8.10;83.80
53748;DHT22;39655;53.210;5.768;2024-03-02T09:10:46;8.10;83.50
53748;DHT22;39655;53.210;5.768;2024-03-02T09:13:12;8.10;83.70
53748;DHT22;39655;53.210;5.768;2024-03-02T09:15:38;8.20;83.40
53748;DHT22;39655;53.210;5.768;2024-03-02T09:18:05;8.20;83.80
53748;DHT22;39655;53.210;5.768;2024-03-02T09:20:32;8.20;83.30
53748;DHT22;39655;53.210;5.768;2024-03-02T09:22:57;8.20;83.10
53748;DHT22;39655;53.210;5.768;2024-03-02T09:25:23;8.20;82.70
53748;DHT22;39655;53.210;5.768;2024-03-02T09:27:49;8.20;83.30
53748;DHT22;39655;53.210;5.768;2024-03-02T09:30:14;8.20;83.10
53748;DHT22;39655;53.210;5.768;2024-03-02T09:32:42;8.20;83.30
53748;DHT22;39655;53.210;5.768;2024-03-02T09:35:10;8.30;83.40
53748;DHT22;39655;53.210;5.768;2024-03-02T09:37:37;8.30;83.30
53748;DHT22;39655;53.210;5.768;2024-03-02T09:40:04;8.40;83.00
53748;DHT22;39655;53.210;5.768;2024-03-02T09:42:30;8.50;82.50
53748;DHT22;39655;53.210;5.768;2024-03-02T09:44:57;8.60;82.00
53748;DHT22;39655;53.210;5.768;2024-03-02T09:47:22;8.70;81.70
53748;DHT22;39655;53.210;5.768;2024-03-02T09:49:48;8.80;81.20
53748;DHT22;39655;53.210;5.768;2024-03-02T09:52:14;8.80;80.80
53748;DHT22;39655;53.210;5.768;2024-03-02T09:54:42;8.90;80.20
53748;DHT22;39655;53.210;5.768;2024-03-02T09:57:07;9.00;79.50
53748;DHT22;39655;53.210;5.768;2024-03-02T09:59:33;9.00;80.00
53748;DHT22;39655;53.210;5.768;2024-03-02T10:02:02;9.10;79.00
53748;DHT22;39655;53.210;5.768;2024-03-02T10:04:29;9.10;78.60
53748;DHT22;39655;53.210;5.768;2024-03-02T10:07:18;9.10;79.00
53748;DHT22;39655;53.210;5.768;2024-03-02T10:09:48;9.10;77.80
53748;DHT22;39655;53.210;5.768;2024-03-02T10:12:18;9.20;77.90
53748;DHT22;39655;53.210;5.768;2024-03-02T10:14:45;9.30;77.80
53748;DHT22;39655;53.210;5.768;2024-03-02T10:17:14;9.40;77.90
53748;DHT22;39655;53.210;5.768;2024-03-02T10:19:42;9.50;76.80
53748;DHT22;39655;53.210;5.768;2024-03-02T10:22:09;9.50;77.10
53748;DHT22;39655;53.210;5.768;2024-03-02T10:24:40;9.70;76.80
53748;DHT22;39655;53.210;5.768;2024-03-02T10:27:11;9.70;76.50
53748;DHT22;39655;53.210;5.768;2024-03-02T10:29:40;9.80;77.10
53748;DHT22;39655;53.210;5.768;2024-03-02T10:32:11;9.90;76.90
53748;DHT22;39655;53.210;5.768;2024-03-02T10:34:40;9.90;75.80
53748;DHT22;39655;53.210;5.768;2024-03-02T10:37:07;9.90;75.40
53748;DHT22;39655;53.210;5.768;2024-03-02T10:39:35;9.90;75.50
53748;DHT22;39655;53.210;5.768;2024-03-02T10:42:07;9.90;75.40
53748;DHT22;39655;53.210;5.768;2024-03-02T10:44:33;10.00;75.20
53748;DHT22;39655;53.210;5.768;2024-03-02T10:47:01;10.10;74.70
53748;DHT22;39655;53.210;5.768;2024-03-02T10:49:29;10.10;74.30
53748;DHT22;39655;53.210;5.768;2024-03-02T10:51:55;10.20;74.40
53748;DHT22;39655;53.210;5.768;2024-03-02T10:54:21;10.20;74.20
53748;DHT22;39655;53.210;5.768;2024-03-02T10:56:52;10.20;73.50
53748;DHT22;39655;53.210;5.768;2024-03-02T10:59:33;10.30;74.30
53748;DHT22;39655;53.210;5.768;2024-03-02T11:02:01;10.30;73.20
53748;DHT22;39655;53.210;5.768;2024-03-02T11:04:29;10.40;71.80
53748;DHT22;39655;53.210;5.768;2024-03-02T11:07:02;10.40;73.40
53748;DHT22;39655;53.210;5.768;2024-03-02T11:09:30;10.50;72.80
53748;DHT22;39655;53.210;5.768;2024-03-02T11:12:06;10.60;72.60
53748;DHT22;39655;53.210;5.768;2024-03-02T11:14:40;10.70;71.60
53748;DHT22;39655;53.210;5.768;2024-03-02T11:17:09;10.80;71.70
53748;DHT22;39655;53.210;5.768;2024-03-02T11:19:40;10.90;71.40
53748;DHT22;39655;53.210;5.768;2024-03-02T11:22:06;10.90;71.30
53748;DHT22;39655;53.210;5.768;2024-03-02T11:24:33;11.00;71.00
53748;DHT22;39655;53.210;5.768;2024-03-02T11:27:03;11.00;69.80
53748;DHT22;39655;53.210;5.768;2024-03-02T11:32:04;11.20;69.30
53748;DHT22;39655;53.210;5.768;2024-03-02T11:34:37;11.30;68.70
53748;DHT22;39655;53.210;5.768;2024-03-02T11:37:05;11.30;68.10
53748;DHT22;39655;53.210;5.768;2024-03-02T11:39:31;11.50;67.80
53748;DHT22;39655;53.210;5.768;2024-03-02T11:41:58;11.70;66.80
53748;DHT22;39655;53.210;5.768;2024-03-02T11:44:27;12.00;66.50
53748;DHT22;39655;53.210;5.768;2024-03-02T11:47:00;12.40;66.40
53748;DHT22;39655;53.210;5.768;2024-03-02T11:52:05;13.70;62.40
53748;DHT22;39655;53.210;5.768;2024-03-02T11:54:33;14.10;59.50
53748;DHT22;39655;53.210;5.768;2024-03-02T11:57:03;14.60;58.80
53748;DHT22;39655;53.210;5.768;2024-03-02T11:59:29;15.00;58.30
53748;DHT22;39655;53.210;5.768;2024-03-02T12:01:55;15.60;55.50
53748;DHT22;39655;53.210;5.768;2024-03-02T12:04:25;16.10;56.00
53748;DHT22;39655;53.210;5.768;2024-03-02T12:06:56;16.20;54.10
53748;DHT22;39655;53.210;5.768;2024-03-02T12:09:22;16.40;53.70
53748;DHT22;39655;53.210;5.768;2024-03-02T12:11:47;16.60;52.40
53748;DHT22;39655;53.210;5.768;2024-03-02T12:14:13;16.70;50.50
53748;DHT22;39655;53.210;5.768;2024-03-02T12:16:43;17.00;51.80
53748;DHT22;39655;53.210;5.768;2024-03-02T12:19:08;17.40;51.00
53748;DHT22;39655;53.210;5.768;2024-03-02T12:21:34;18.00;52.00
53748;DHT22;39655;53.210;5.768;2024-03-02T12:24:00;18.20;46.30
53748;DHT22;39655;53.210;5.768;2024-03-02T12:26:26;18.10;44.60
53748;DHT22;39655;53.210;5.768;2024-03-02T12:28:52;18.30;46.50
53748;DHT22;39655;53.210;5.768;2024-03-02T12:31:18;18.30;45.90
53748;DHT22;39655;53.210;5.768;2024-03-02T12:33:44;18.20;43.60
53748;DHT22;39655;53.210;5.768;2024-03-02T12:36:10;17.70;43.90
53748;DHT22;39655;53.210;5.768;2024-03-02T12:38:43;17.60;45.70
53748;DHT22;39655;53.210;5.768;2024-03-02T12:41:09;17.70;45.80
53748;DHT22;39655;53.210;5.768;2024-03-02T12:43:35;17.50;46.00
53748;DHT22;39655;53.210;5.768;2024-03-02T12:46:00;17.40;45.30
53748;DHT22;39655;53.210;5.768;2024-03-02T12:48:29;17.60;47.70
53748;DHT22;39655;53.210;5.768;2024-03-02T12:50:55;17.80;45.20
53748;DHT22;39655;53.210;5.768;2024-03-02T12:53:21;18.00;45.00
53748;DHT22;39655;53.210;5.768;2024-03-02T12:55:48;18.30;46.60
53748;DHT22;39655;53.210;5.768;2024-03-02T12:58:19;18.90;44.00
53748;DHT22;39655;53.210;5.768;2024-03-02T13:00:48;19.00;42.00
53748;DHT22;39655;53.210;5.768;2024-03-02T13:03:18;19.30;43.00
53748;DHT22;39655;53.210;5.768;2024-03-02T13:05:55;19.70;42.50
53748;DHT22;39655;53.210;5.768;2024-03-02T13:08:21;19.90;41.50
53748;DHT22;39655;53.210;5.768;2024-03-02T13:10:47;19.90;42.50
53748;DHT22;39655;53.210;5.768;2024-03-02T13:13:13;19.50;42.00
53748;DHT22;39655;53.210;5.768;2024-03-02T13:22:41;20.30;42.10
53748;DHT22;39655;53.210;5.768;2024-03-02T13:25:07;20.70;42.80
53748;DHT22;39655;53.210;5.768;2024-03-02T13:27:38;21.00;40.50
53748;DHT22;39655;53.210;5.768;2024-03-02T13:30:04;21.20;41.00
53748;DHT22;39655;53.210;5.768;2024-03-02T13:32:31;20.90;41.50
53748;DHT22;39655;53.210;5.768;2024-03-02T13:34:58;20.80;41.80
53748;DHT22;39655;53.210;5.768;2024-03-02T13:37:31;20.70;38.90
53748;DHT22;39655;53.210;5.768;2024-03-02T13:39:57;20.80;39.00
53748;DHT22;39655;53.210;5.768;2024-03-02T13:42:23;20.80;39.40
53748;DHT22;39655;53.210;5.768;2024-03-02T13:44:49;21.10;38.90
53748;DHT22;39655;53.210;5.768;2024-03-02T13:47:16;21.20;37.30
53748;DHT22;39655;53.210;5.768;2024-03-02T13:49:42;21.60;39.50
53748;DHT22;39655;53.210;5.768;2024-03-02T13:52:12;21.80;37.80
53748;DHT22;39655;53.210;5.768;2024-03-02T13:54:41;21.80;35.80
53748;DHT22;39655;53.210;5.768;2024-03-02T13:57:07;21.20;35.90
53748;DHT22;39655;53.210;5.768;2024-03-02T13:59:37;21.00;38.00
53748;DHT22;39655;53.210;5.768;2024-03-02T14:02:04;21.10;38.10
53748;DHT22;39655;53.210;5.768;2024-03-02T14:04:33;21.40;38.00
53748;DHT22;39655;53.210;5.768;2024-03-02T14:07:00;21.70;38.30
53748;DHT22;39655;53.210;5.768;2024-03-02T14:09:29;21.70;36.80
53748;DHT22;39655;53.210;5.768;2024-03-02T14:11:58;22.00;37.90
53748;DHT22;39655;53.210;5.768;2024-03-02T14:14:26;21.80;37.40
53748;DHT22;39655;53.210;5.768;2024-03-02T14:16:55;21.80;36.30
53748;DHT22;39655;53.210;5.768;2024-03-02T14:19:30;21.90;35.70
53748;DHT22;39655;53.210;5.768;2024-03-02T14:21:56;22.30;36.50
53748;DHT22;39655;53.210;5.768;2024-03-02T14:24:24;22.30;35.50
53748;DHT22;39655;53.210;5.768;2024-03-02T14:26:52;22.60;35.60
53748;DHT22;39655;53.210;5.768;2024-03-02T14:29:18;22.80;34.90
53748;DHT22;39655;53.210;5.768;2024-03-02T14:31:44;22.80;35.80
53748;DHT22;39655;53.210;5.768;2024-03-02T14:34:14;22.70;35.30
53748;DHT22;39655;53.210;5.768;2024-03-02T14:36:40;22.30;37.60
53748;DHT22;39655;53.210;5.768;2024-03-02T14:39:06;22.00;35.10
53748;DHT22;39655;53.210;5.768;2024-03-02T14:41:36;21.70;35.60
53748;DHT22;39655;53.210;5.768;2024-03-02T14:44:02;21.40;36.40
53748;DHT22;39655;53.210;5.768;2024-03-02T14:46:28;20.80;36.50
53748;DHT22;39655;53.210;5.768;2024-03-02T14:48:53;20.10;38.80
53748;DHT22;39655;53.210;5.768;2024-03-02T14:51:19;19.80;39.30
53748;DHT22;39655;53.210;5.768;2024-03-02T14:53:45;20.30;41.10
53748;DHT22;39655;53.210;5.768;2024-03-02T14:56:11;20.60;40.00
53748;DHT22;39655;53.210;5.768;2024-03-02T14:58:38;20.50;39.30
53748;DHT22;39655;53.210;5.768;2024-03-02T15:01:04;20.30;38.90
53748;DHT22;39655;53.210;5.768;2024-03-02T15:03:35;19.90;39.70
53748;DHT22;39655;53.210;5.768;2024-03-02T15:06:01;19.00;41.20
53748;DHT22;39655;53.210;5.768;2024-03-02T15:08:32;18.10;43.10
53748;DHT22;39655;53.210;5.768;2024-03-02T15:10:59;17.40;43.80
53748;DHT22;39655;53.210;5.768;2024-03-02T15:13:42;16.70;45.50
53748;DHT22;39655;53.210;5.768;2024-03-02T15:16:08;16.20;46.70
53748;DHT22;39655;53.210;5.768;2024-03-02T15:18:33;15.80;48.00
53748;DHT22;39655;53.210;5.768;2024-03-02T15:21:00;15.50;48.40
53748;DHT22;39655;53.210;5.768;2024-03-02T15:23:26;15.30;50.50
53748;DHT22;39655;53.210;5.768;2024-03-02T15:25:51;15.10;50.60
53748;DHT22;39655;53.210;5.768;2024-03-02T15:28:17;14.90;51.20
53748;DHT22;39655;53.210;5.768;2024-03-02T15:30:44;14.70;51.90
53748;DHT22;39655;53.210;5.768;2024-03-02T15:33:09;14.60;51.80
53748;DHT22;39655;53.210;5.768;2024-03-02T15:35:35;14.50;52.40
53748;DHT22;39655;53.210;5.768;2024-03-02T15:38:01;14.30;53.10
53748;DHT22;39655;53.210;5.768;2024-03-02T15:40:26;14.20;54.00
53748;DHT22;39655;53.210;5.768;2024-03-02T15:42:52;14.10;54.40
53748;DHT22;39655;53.210;5.768;2024-03-02T15:45:18;14.00;54.90
53748;DHT22;39655;53.210;5.768;2024-03-02T15:47:43;14.00;55.30
53748;DHT22;39655;53.210;5.768;2024-03-02T15:50:09;14.00;55.40
53748;DHT22;39655;53.210;5.768;2024-03-02T15:52:38;14.10;56.10
53748;DHT22;39655;53.210;5.768;2024-03-02T15:55:04;14.10;55.80
53748;DHT22;39655;53.210;5.768;2024-03-02T15:57:31;14.40;55.10
53748;DHT22;39655;53.210;5.768;2024-03-02T15:59:57;14.60;55.60
53748;DHT22;39655;53.210;5.768;2024-03-02T16:02:23;14.80;55.10
53748;DHT22;39655;53.210;5.768;2024-03-02T16:04:49;15.20;54.70
53748;DHT22;39655;53.210;5.768;2024-03-02T16:07:14;15.70;53.60
53748;DHT22;39655;53.210;5.768;2024-03-02T16:09:40;16.20;51.70
53748;DHT22;39655;53.210;5.768;2024-03-02T16:12:06;16.70;50.70
53748;DHT22;39655;53.210;5.768;2024-03-02T16:14:32;16.80;50.40
53748;DHT22;39655;53.210;5.768;2024-03-02T16:16:58;16.30;50.20
53748;DHT22;39655;53.210;5.768;2024-03-02T16:19:23;16.10;51.00
53748;DHT22;39655;53.210;5.768;2024-03-02T16:21:49;15.90;51.20
53748;DHT22;39655;53.210;5.768;2024-03-02T16:24:15;15.70;50.90
53748;DHT22;39655;53.210;5.768;2024-03-02T16:26:40;15.30;52.10
53748;DHT22;39655;53.210;5.768;2024-03-02T16:29:06;14.70;53.50
53748;DHT22;39655;53.210;5.768;2024-03-02T16:31:32;14.30;55.30
53748;DHT22;39655;53.210;5.768;2024-03-02T16:33:57;13.80;56.20
53748;DHT22;39655;53.210;5.768;2024-03-02T16:36:23;13.60;57.60
53748;DHT22;39655;53.210;5.768;2024-03-02T16:38:49;13.40;58.10
53748;DHT22;39655;53.210;5.768;2024-03-02T16:41:14;13.10;58.80
53748;DHT22;39655;53.210;5.768;2024-03-02T16:43:42;12.80;59.40
53748;DHT22;39655;53.210;5.768;2024-03-02T16:46:10;12.60;60.10
53748;DHT22;39655;53.210;5.768;2024-03-02T16:48:36;12.40;60.50
53748;DHT22;39655;53.210;5.768;2024-03-02T16:51:01;12.20;61.70
53748;DHT22;39655;53.210;5.768;2024-03-02T16:53:28;12.10;62.50
53748;DHT22;39655;53.210;5.768;2024-03-02T16:55:58;12.00;62.40
53748;DHT22;39655;53.210;5.768;2024-03-02T16:58:24;11.90;62.70
53748;DHT22;39655;53.210;5.768;2024-03-02T17:00:49;11.70;64.10
53748;DHT22;39655;53.210;5.768;2024-03-02T17:03:15;11.60;64.10
53748;DHT22;39655;53.210;5.768;2024-03-02T17:05:41;11.50;64.80
53748;DHT22;39655;53.210;5.768;2024-03-02T17:08:07;11.40;65.60
53748;DHT22;39655;53.210;5.768;2024-03-02T17:10:32;11.30;65.90
53748;DHT22;39655;53.210;5.768;2024-03-02T17:12:58;11.20;66.20
53748;DHT22;39655;53.210;5.768;2024-03-02T17:15:25;11.20;66.20
53748;DHT22;39655;53.210;5.768;2024-03-02T17:17:51;11.10;67.00
53748;DHT22;39655;53.210;5.768;2024-03-02T17:20:17;11.10;66.80
53748;DHT22;39655;53.210;5.768;2024-03-02T17:22:43;11.00;67.70
53748;DHT22;39655;53.210;5.768;2024-03-02T17:25:08;11.00;67.20
53748;DHT22;39655;53.210;5.768;2024-03-02T17:27:34;11.00;67.40
53748;DHT22;39655;53.210;5.768;2024-03-02T17:30:00;10.90;67.70
53748;DHT22;39655;53.210;5.768;2024-03-02T17:32:25;10.90;67.50
53748;DHT22;39655;53.210;5.768;2024-03-02T17:34:51;10.80;67.50
53748;DHT22;39655;53.210;5.768;2024-03-02T17:37:16;10.80;68.30
53748;DHT22;39655;53.210;5.768;2024-03-02T17:39:42;10.70;68.30
53748;DHT22;39655;53.210;5.768;2024-03-02T17:42:08;10.70;68.30
53748;DHT22;39655;53.210;5.768;2024-03-02T17:44:33;10.60;68.50
53748;DHT22;39655;53.210;5.768;2024-03-02T17:46:59;10.60;68.30
53748;DHT22;39655;53.210;5.768;2024-03-02T17:49:24;10.50;68.00
53748;DHT22;39655;53.210;5.768;2024-03-02T17:51:50;10.40;68.60
53748;DHT22;39655;53.210;5.768;2024-03-02T17:54:15;10.40;69.20
53748;DHT22;39655;53.210;5.768;2024-03-02T17:56:41;10.30;69.10
53748;DHT22;39655;53.210;5.768;2024-03-02T17:59:10;10.30;69.30
53748;DHT22;39655;53.210;5.768;2024-03-02T18:01:35;10.30;69.60
53748;DHT22;39655;53.210;5.768;2024-03-02T18:04:01;10.30;69.90
53748;DHT22;39655;53.210;5.768;2024-03-02T18:06:27;10.20;70.60
53748;DHT22;39655;53.210;5.768;2024-03-02T18:08:53;10.20;70.90
53748;DHT22;39655;53.210;5.768;2024-03-02T18:11:19;10.20;71.30
53748;DHT22;39655;53.210;5.768;2024-03-02T18:13:45;10.10;72.60
53748;DHT22;39655;53.210;5.768;2024-03-02T18:16:15;10.00;72.30
53748;DHT22;39655;53.210;5.768;2024-03-02T18:18:43;10.00;72.30
53748;DHT22;39655;53.210;5.768;2024-03-02T18:21:08;10.10;72.50
53748;DHT22;39655;53.210;5.768;2024-03-02T18:23:34;10.00;72.20
53748;DHT22;39655;53.210;5.768;2024-03-02T18:26:00;10.00;73.30